sensor_id;sensor_type;location;lat;lon;timestamp;pressure;altitude;pressure_sealevel;temperature;humidity
32243;BME280;18731;42.830;24.390;2023-02-02T04:01:50;94473.00;;;-0.42;76.40
32243;BME280;18731;42.830;24.390;2023-02-02T04:04:16;94484.03;;;-0.35;76.35
32243;BME280;18731;42.830;24.390;2023-02-02T04:06:41;94482.19;;;-0.45;76.72
32243;BME280;18731;42.830;24.390;2023-02-02T04:09:07;94474.53;;;-0.61;77.16
32243;BME280;18731;42.830;24.390;2023-02-02T04:11:33;94482.66;;;-0.58;77.59
32243;BME280;18731;42.830;24.390;2023-02-02T04:13:58;94474.53;;;-0.56;77.40
32243;BME280;18731;42.830;24.390;2023-02-02T04:16:24;94480.84;;;-0.52;77.47
32243;BME280;18731;42.830;24.390;2023-02-02T04:18:50;94490.56;;;-0.48;77.39
32243;BME280;18731;42.830;24.390;2023-02-02T04:21:15;94476.13;;;-0.50;77.54
32243;BME280;18731;42.830;24.390;2023-02-02T04:23:41;94484.25;;;-0.52;78.10
32243;BME280;18731;42.830;24.390;2023-02-02T04:26:07;94493.44;;;-0.49;76.96
32243;BME280;18731;42.830;24.390;2023-02-02T04:28:33;94497.91;;;-0.50;76.46
32243;BME280;18731;42.830;24.390;2023-02-02T04:30:59;94491.59;;;-0.54;76.64
32243;BME280;18731;42.830;24.390;2023-02-02T04:33:27;94493.16;;;-0.53;76.44
32243;BME280;18731;42.830;24.390;2023-02-02T04:35:53;94487.38;;;-0.60;77.06
32243;BME280;18731;42.830;24.390;2023-02-02T04:38:19;94481.88;;;-0.63;77.05
32243;BME280;18731;42.830;24.390;2023-02-02T04:40:46;94491.03;;;-0.66;75.88
32243;BME280;18731;42.830;24.390;2023-02-02T04:43:12;94504.38;;;-0.73;75.97
32243;BME280;18731;42.830;24.390;2023-02-02T04:45:38;94482.28;;;-0.97;75.99
32243;BME280;18731;42.830;24.390;2023-02-02T04:48:04;94509.09;;;-0.75;76.78
32243;BME280;18731;42.830;24.390;2023-02-02T04:50:30;94503.03;;;-0.80;76.79
32243;BME280;18731;42.830;24.390;2023-02-02T04:52:56;94495.19;;;-0.75;76.49
32243;BME280;18731;42.830;24.390;2023-02-02T04:55:23;94497.50;;;-0.89;75.98
32243;BME280;18731;42.830;24.390;2023-02-02T04:57:48;94498.00;;;-0.92;77.18
32243;BME280;18731;42.830;24.390;2023-02-02T05:00:14;94512.16;;;-0.93;78.02
32243;BME280;18731;42.830;24.390;2023-02-02T05:02:41;94498.78;;;-0.97;76.67
32243;BME280;18731;42.830;24.390;2023-02-02T05:05:11;94508.69;;;-1.04;76.30
32243;BME280;18731;42.830;24.390;2023-02-02T05:07:37;94509.22;;;-1.02;76.55
32243;BME280;18731;42.830;24.390;2023-02-02T05:10:05;94523.09;;;-1.06;76.44
32243;BME280;18731;42.830;24.390;2023-02-02T05:12:30;94526.72;;;-1.12;77.39
32243;BME280;18731;42.830;24.390;2023-02-02T05:14:56;94527.78;;;-1.13;76.97
32243;BME280;18731;42.830;24.390;2023-02-02T05:17:26;94525.94;;;-1.13;77.94
32243;BME280;18731;42.830;24.390;2023-02-02T05:19:51;94517.25;;;-1.18;79.05
32243;BME280;18731;42.830;24.390;2023-02-02T05:22:17;94533.53;;;-1.11;78.70
32243;BME280;18731;42.830;24.390;2023-02-02T05:24:42;94494.66;;;-1.35;78.44
32243;BME280;18731;42.830;24.390;2023-02-02T05:27:08;94522.22;;;-1.22;78.95
32243;BME280;18731;42.830;24.390;2023-02-02T05:29:34;94505.22;;;-1.19;79.34
32243;BME280;18731;42.830;24.390;2023-02-02T05:31:59;94532.00;;;-1.02;80.45
32243;BME280;18731;42.830;24.390;2023-02-02T05:34:25;94530.44;;;-1.03;80.15
32243;BME280;18731;42.830;24.390;2023-02-02T05:36:50;94532.31;;;-0.99;80.15
32243;BME280;18731;42.830;24.390;2023-02-02T05:39:17;94519.19;;;-0.99;79.74
32243;BME280;18731;42.830;24.390;2023-02-02T05:41:42;94533.19;;;-0.78;79.62
32243;BME280;18731;42.830;24.390;2023-02-02T05:44:11;94524.22;;;-0.87;79.94
32243;BME280;18731;42.830;24.390;2023-02-02T05:46:37;94531.66;;;-0.69;79.94
32243;BME280;18731;42.830;24.390;2023-02-02T05:49:02;94537.16;;;-0.65;79.90
32243;BME280;18731;42.830;24.390;2023-02-02T05:51:36;94543.22;;;-0.54;80.05
32243;BME280;18731;42.830;24.390;2023-02-02T05:54:04;94550.91;;;-0.38;79.47
32243;BME280;18731;42.830;24.390;2023-02-02T05:56:30;94558.00;;;-0.28;79.08
32243;BME280;18731;42.830;24.390;2023-02-02T05:58:55;94547.00;;;-0.20;78.99
32243;BME280;18731;42.830;24.390;2023-02-02T06:01:21;94533.38;;;-0.22;78.68
32243;BME280;18731;42.830;24.390;2023-02-02T06:03:47;94548.63;;;-0.04;78.38
32243;BME280;18731;42.830;24.390;2023-02-02T06:06:12;94551.81;;;0.09;78.44
32243;BME280;18731;42.830;24.390;2023-02-02T06:08:38;94528.47;;;0.07;77.92
32243;BME280;18731;42.830;24.390;2023-02-02T06:11:14;94557.09;;;0.29;77.95
32243;BME280;18731;42.830;24.390;2023-02-02T06:13:40;94556.31;;;0.39;77.86
32243;BME280;18731;42.830;24.390;2023-02-02T06:16:06;94545.53;;;0.50;77.28
32243;BME280;18731;42.830;24.390;2023-02-02T06:18:33;94551.56;;;0.61;77.31
32243;BME280;18731;42.830;24.390;2023-02-02T06:21:00;94557.34;;;0.63;77.15
32243;BME280;18731;42.830;24.390;2023-02-02T06:23:26;94554.44;;;0.75;76.87
32243;BME280;18731;42.830;24.390;2023-02-02T06:25:52;94561.00;;;0.82;76.48
32243;BME280;18731;42.830;24.390;2023-02-02T06:28:17;94563.13;;;0.85;76.61
32243;BME280;18731;42.830;24.390;2023-02-02T06:30:43;94567.56;;;0.90;76.17
32243;BME280;18731;42.830;24.390;2023-02-02T06:33:08;94577.56;;;0.93;76.05
32243;BME280;18731;42.830;24.390;2023-02-02T06:35:34;94567.31;;;0.96;75.94
32243;BME280;18731;42.830;24.390;2023-02-02T06:38:00;94573.09;;;0.83;76.52
32243;BME280;18731;42.830;24.390;2023-02-02T06:40:26;94576.78;;;0.82;76.94
32243;BME280;18731;42.830;24.390;2023-02-02T06:43:00;94580.97;;;0.88;77.17
32243;BME280;18731;42.830;24.390;2023-02-02T06:45:27;94583.59;;;0.93;77.41
32243;BME280;18731;42.830;24.390;2023-02-02T06:47:53;94572.53;;;1.07;77.30
32243;BME280;18731;42.830;24.390;2023-02-02T06:50:22;94575.66;;;1.19;76.97
32243;BME280;18731;42.830;24.390;2023-02-02T06:52:50;94572.25;;;1.23;76.95
32243;BME280;18731;42.830;24.390;2023-02-02T06:55:17;94562.75;;;1.33;76.84
32243;BME280;18731;42.830;24.390;2023-02-02T06:57:44;94560.59;;;1.45;76.43
32243;BME280;18731;42.830;24.390;2023-02-02T07:00:12;94570.81;;;1.56;75.96
32243;BME280;18731;42.830;24.390;2023-02-02T07:02:38;94579.53;;;1.47;76.09
32243;BME280;18731;42.830;24.390;2023-02-02T07:05:04;94564.81;;;1.46;75.92
32243;BME280;18731;42.830;24.390;2023-02-02T07:07:33;94575.00;;;1.63;75.86
32243;BME280;18731;42.830;24.390;2023-02-02T07:09:59;94569.44;;;1.74;75.85
32243;BME280;18731;42.830;24.390;2023-02-02T07:12:25;94572.06;;;1.74;75.55
32243;BME280;18731;42.830;24.390;2023-02-02T07:14:52;94571.47;;;1.87;75.36
32243;BME280;18731;42.830;24.390;2023-02-02T07:17:18;94567.72;;;1.99;75.44
32243;BME280;18731;42.830;24.390;2023-02-02T07:19:44;94566.34;;;2.11;75.24
32243;BME280;18731;42.830;24.390;2023-02-02T07:22:10;94575.75;;;2.22;74.88
32243;BME280;18731;42.830;24.390;2023-02-02T07:24:35;94570.66;;;2.36;74.69
32243;BME280;18731;42.830;24.390;2023-02-02T07:27:04;94560.31;;;2.45;74.38
32243;BME280;18731;42.830;24.390;2023-02-02T07:29:30;94576.78;;;2.66;73.62
32243;BME280;18731;42.830;24.390;2023-02-02T07:31:56;94574.50;;;2.88;73.29
32243;BME280;18731;42.830;24.390;2023-02-02T07:34:24;94572.66;;;3.17;72.63
32243;BME280;18731;42.830;24.390;2023-02-02T07:36:50;94573.28;;;3.57;71.90
32243;BME280;18731;42.830;24.390;2023-02-02T07:39:15;94578.81;;;3.79;70.71
32243;BME280;18731;42.830;24.390;2023-02-02T07:41:41;94572.28;;;3.96;68.88
32243;BME280;18731;42.830;24.390;2023-02-02T07:44:12;94563.34;;;3.92;68.22
32243;BME280;18731;42.830;24.390;2023-02-02T07:46:43;94577.28;;;4.16;68.64
32243;BME280;18731;42.830;24.390;2023-02-02T07:49:15;94556.59;;;4.23;68.04
32243;BME280;18731;42.830;24.390;2023-02-02T07:51:41;94576.59;;;4.48;67.80
32243;BME280;18731;42.830;24.390;2023-02-02T07:54:07;94574.06;;;4.57;66.98
32243;BME280;18731;42.830;24.390;2023-02-02T07:56:33;94569.91;;;4.69;66.05
32243;BME280;18731;42.830;24.390;2023-02-02T07:58:59;94557.13;;;4.58;66.77
32243;BME280;18731;42.830;24.390;2023-02-02T08:01:26;94554.00;;;4.88;66.57
32243;BME280;18731;42.830;24.390;2023-02-02T08:03:54;94552.56;;;5.42;65.58
32243;BME280;18731;42.830;24.390;2023-02-02T08:06:23;94544.22;;;5.76;63.41
32243;BME280;18731;42.830;24.390;2023-02-02T08:08:50;94538.28;;;6.20;61.92
32243;BME280;18731;42.830;24.390;2023-02-02T08:11:18;94517.94;;;6.74;60.62
32243;BME280;18731;42.830;24.390;2023-02-02T08:13:50;94524.72;;;7.42;58.93
32243;BME280;18731;42.830;24.390;2023-02-02T08:16:17;94533.66;;;7.94;57.21
32243;BME280;18731;42.830;24.390;2023-02-02T08:18:42;94520.19;;;7.91;56.22
32243;BME280;18731;42.830;24.390;2023-02-02T08:21:09;94522.75;;;8.30;56.05
32243;BME280;18731;42.830;24.390;2023-02-02T08:23:37;94521.38;;;8.59;54.65
32243;BME280;18731;42.830;24.390;2023-02-02T08:26:06;94524.63;;;8.90;54.44
32243;BME280;18731;42.830;24.390;2023-02-02T08:28:32;94518.94;;;9.18;53.30
32243;BME280;18731;42.830;24.390;2023-02-02T08:31:12;94516.47;;;9.51;52.50
32243;BME280;18731;42.830;24.390;2023-02-02T08:33:38;94510.47;;;9.62;51.93
32243;BME280;18731;42.830;24.390;2023-02-02T08:36:07;94510.38;;;9.80;51.30
32243;BME280;18731;42.830;24.390;2023-02-02T08:38:33;94508.84;;;9.99;50.66
32243;BME280;18731;42.830;24.390;2023-02-02T08:41:09;94505.03;;;10.09;50.17
32243;BME280;18731;42.830;24.390;2023-02-02T08:43:35;94497.16;;;10.42;49.27
32243;BME280;18731;42.830;24.390;2023-02-02T08:46:01;94493.03;;;10.24;50.15
32243;BME280;18731;42.830;24.390;2023-02-02T08:48:27;94475.63;;;10.18;50.07
32243;BME280;18731;42.830;24.390;2023-02-02T08:50:57;94482.28;;;10.12;49.85
32243;BME280;18731;42.830;24.390;2023-02-02T08:53:24;94455.56;;;10.20;50.19
32243;BME280;18731;42.830;24.390;2023-02-02T08:56:04;94467.00;;;10.95;48.14
32243;BME280;18731;42.830;24.390;2023-02-02T08:58:31;94471.31;;;11.33;46.67
32243;BME280;18731;42.830;24.390;2023-02-02T09:03:36;94484.53;;;11.30;47.07
32243;BME280;18731;42.830;24.390;2023-02-02T09:06:09;94481.88;;;10.84;48.64
32243;BME280;18731;42.830;24.390;2023-02-02T09:08:37;94472.59;;;10.70;49.23
32243;BME280;18731;42.830;24.390;2023-02-02T09:11:07;94483.88;;;10.34;48.58
32243;BME280;18731;42.830;24.390;2023-02-02T09:13:34;94472.44;;;10.87;48.57
32243;BME280;18731;42.830;24.390;2023-02-02T09:16:01;94471.16;;;11.17;47.71
32243;BME280;18731;42.830;24.390;2023-02-02T09:18:27;94473.72;;;11.14;47.87
32243;BME280;18731;42.830;24.390;2023-02-02T09:20:53;94465.75;;;11.38;47.58
32243;BME280;18731;42.830;24.390;2023-02-02T09:23:18;94459.97;;;11.85;46.26
32243;BME280;18731;42.830;24.390;2023-02-02T09:25:45;94452.56;;;12.18;45.11
32243;BME280;18731;42.830;24.390;2023-02-02T09:28:11;94430.09;;;12.35;45.74
32243;BME280;18731;42.830;24.390;2023-02-02T09:30:37;94443.16;;;12.65;41.05
32243;BME280;18731;42.830;24.390;2023-02-02T09:33:03;94450.59;;;12.43;44.77
32243;BME280;18731;42.830;24.390;2023-02-02T09:35:28;94444.09;;;12.16;44.67
32243;BME280;18731;42.830;24.390;2023-02-02T09:37:54;94449.50;;;11.80;46.01
32243;BME280;18731;42.830;24.390;2023-02-02T09:40:20;94441.25;;;11.48;46.54
32243;BME280;18731;42.830;24.390;2023-02-02T09:48:19;94424.94;;;10.92;47.84
32243;BME280;18731;42.830;24.390;2023-02-02T09:50:54;94431.94;;;10.85;48.69
32243;BME280;18731;42.830;24.390;2023-02-02T09:53:29;94419.56;;;10.80;48.32
32243;BME280;18731;42.830;24.390;2023-02-02T09:56:04;94421.59;;;10.83;48.93
32243;BME280;18731;42.830;24.390;2023-02-02T09:58:40;94419.72;;;10.30;49.75
32243;BME280;18731;42.830;24.390;2023-02-02T10:01:52;94416.78;;;10.02;50.41
32243;BME280;18731;42.830;24.390;2023-02-02T10:06:49;94409.69;;;10.06;51.28
32243;BME280;18731;42.830;24.390;2023-02-02T10:09:38;94400.72;;;10.31;50.91
32243;BME280;18731;42.830;24.390;2023-02-02T10:14:58;94387.94;;;10.58;50.94
32243;BME280;18731;42.830;24.390;2023-02-02T10:20:23;94384.94;;;10.59;49.96
32243;BME280;18731;42.830;24.390;2023-02-02T10:22:57;94373.94;;;10.73;50.16
32243;BME280;18731;42.830;24.390;2023-02-02T10:25:28;94373.75;;;10.90;49.45
32243;BME280;18731;42.830;24.390;2023-02-02T10:28:07;94375.56;;;10.53;50.27
32243;BME280;18731;42.830;24.390;2023-02-02T10:30:44;94354.09;;;10.50;49.28
32243;BME280;18731;42.830;24.390;2023-02-02T10:33:32;94367.44;;;10.50;50.21
32243;BME280;18731;42.830;24.390;2023-02-02T10:44:54;94354.41;;;11.42;43.38
32243;BME280;18731;42.830;24.390;2023-02-02T10:47:27;94339.38;;;10.89;43.19
32243;BME280;18731;42.830;24.390;2023-02-02T10:52:33;94326.53;;;10.46;42.68
32243;BME280;18731;42.830;24.390;2023-02-02T11:00:47;94320.31;;;10.21;42.39
32243;BME280;18731;42.830;24.390;2023-02-02T11:03:17;94316.78;;;10.74;39.99
32243;BME280;18731;42.830;24.390;2023-02-02T11:05:44;94325.44;;;10.59;39.56
32243;BME280;18731;42.830;24.390;2023-02-02T11:08:51;94321.13;;;10.34;39.06
32243;BME280;18731;42.830;24.390;2023-02-02T11:11:26;94326.06;;;9.48;38.79
32243;BME280;18731;42.830;24.390;2023-02-02T11:16:29;94302.16;;;9.81;39.05
32243;BME280;18731;42.830;24.390;2023-02-02T11:18:55;94309.22;;;9.98;38.86
32243;BME280;18731;42.830;24.390;2023-02-02T11:21:29;94305.41;;;9.87;39.75
32243;BME280;18731;42.830;24.390;2023-02-02T11:26:49;94301.50;;;9.84;40.10
32243;BME280;18731;42.830;24.390;2023-02-02T11:35:23;94290.91;;;9.76;40.69
32243;BME280;18731;42.830;24.390;2023-02-02T11:38:08;94278.47;;;9.80;40.63
32243;BME280;18731;42.830;24.390;2023-02-02T11:40:41;94287.88;;;9.44;40.21
32243;BME280;18731;42.830;24.390;2023-02-02T11:43:22;94277.16;;;9.32;40.46
32243;BME280;18731;42.830;24.390;2023-02-02T11:46:04;94275.94;;;8.70;41.79
32243;BME280;18731;42.830;24.390;2023-02-02T11:48:36;94267.88;;;8.58;43.24
32243;BME280;18731;42.830;24.390;2023-02-02T11:51:03;94279.41;;;8.33;42.76
32243;BME280;18731;42.830;24.390;2023-02-02T11:53:41;94277.88;;;8.06;43.72
32243;BME280;18731;42.830;24.390;2023-02-02T11:56:23;94271.19;;;7.91;43.79
32243;BME280;18731;42.830;24.390;2023-02-02T11:58:52;94278.72;;;7.81;44.31
32243;BME280;18731;42.830;24.390;2023-02-02T12:01:35;94276.97;;;7.67;44.87
32243;BME280;18731;42.830;24.390;2023-02-02T12:06:41;94277.44;;;7.61;44.91
32243;BME280;18731;42.830;24.390;2023-02-02T12:09:16;94278.72;;;7.81;44.93
32243;BME280;18731;42.830;24.390;2023-02-02T12:17:30;94268.63;;;8.21;45.17
32243;BME280;18731;42.830;24.390;2023-02-02T12:20:20;94262.50;;;8.20;44.00
32243;BME280;18731;42.830;24.390;2023-02-02T12:36:49;94244.16;;;8.45;44.57
32243;BME280;18731;42.830;24.390;2023-02-02T12:50:22;94222.06;;;8.53;43.44
32243;BME280;18731;42.830;24.390;2023-02-02T12:53:16;94217.97;;;8.55;43.06
32243;BME280;18731;42.830;24.390;2023-02-02T13:01:32;94218.09;;;9.09;42.31
32243;BME280;18731;42.830;24.390;2023-02-02T13:09:32;94181.59;;;9.63;41.77
32243;BME280;18731;42.830;24.390;2023-02-02T13:12:10;94184.38;;;10.12;40.65
32243;BME280;18731;42.830;24.390;2023-02-02T13:14:48;94180.56;;;9.89;41.42
32243;BME280;18731;42.830;24.390;2023-02-02T13:17:32;94216.72;;;9.78;41.56
32243;BME280;18731;42.830;24.390;2023-02-02T13:20:03;94217.44;;;8.91;45.66
32243;BME280;18731;42.830;24.390;2023-02-02T13:22:35;94251.63;;;8.04;50.38
32243;BME280;18731;42.830;24.390;2023-02-02T13:25:04;94322.34;;;6.88;55.78
32243;BME280;18731;42.830;24.390;2023-02-02T13:27:33;94341.31;;;5.89;61.11
32243;BME280;18731;42.830;24.390;2023-02-02T13:30:32;94386.41;;;5.39;65.09
32243;BME280;18731;42.830;24.390;2023-02-02T13:33:16;94390.63;;;4.85;69.02
32243;BME280;18731;42.830;24.390;2023-02-02T13:38:26;94396.69;;;3.61;75.49
32243;BME280;18731;42.830;24.390;2023-02-02T13:40:57;94394.75;;;3.29;77.27
32243;BME280;18731;42.830;24.390;2023-02-02T13:43:33;94402.59;;;3.34;77.94
32243;BME280;18731;42.830;24.390;2023-02-02T13:49:16;94408.31;;;3.41;78.18
32243;BME280;18731;42.830;24.390;2023-02-02T13:58:37;94402.16;;;3.27;78.51
32243;BME280;18731;42.830;24.390;2023-02-02T14:00:47;94412.97;;;3.06;79.78
32243;BME280;18731;42.830;24.390;2023-02-02T14:06:09;94429.44;;;2.69;80.98
32243;BME280;18731;42.830;24.390;2023-02-02T14:08:35;94416.88;;;2.61;81.99
32243;BME280;18731;42.830;24.390;2023-02-02T14:11:04;94412.34;;;2.38;82.58
32243;BME280;18731;42.830;24.390;2023-02-02T14:19:01;94418.72;;;2.03;84.53
32243;BME280;18731;42.830;24.390;2023-02-02T14:24:03;94431.78;;;2.13;84.87
32243;BME280;18731;42.830;24.390;2023-02-02T14:26:41;94432.53;;;1.84;85.46
32243;BME280;18731;42.830;24.390;2023-02-02T14:31:55;94433.03;;;1.86;87.15
32243;BME280;18731;42.830;24.390;2023-02-02T14:34:40;94433.56;;;1.88;86.95
32243;BME280;18731;42.830;24.390;2023-02-02T14:39:53;94448.19;;;2.05;85.98
32243;BME280;18731;42.830;24.390;2023-02-02T14:45:22;94449.78;;;2.01;86.24
32243;BME280;18731;42.830;24.390;2023-02-02T14:47:52;94455.88;;;1.96;86.49
32243;BME280;18731;42.830;24.390;2023-02-02T14:55:58;94449.28;;;1.99;87.16
32243;BME280;18731;42.830;24.390;2023-02-02T15:06:33;94431.72;;;2.23;87.04
32243;BME280;18731;42.830;24.390;2023-02-02T15:14:37;94443.63;;;2.44;85.37
32243;BME280;18731;42.830;24.390;2023-02-02T15:17:25;94445.75;;;2.42;84.61
32243;BME280;18731;42.830;24.390;2023-02-02T15:22:31;94460.63;;;2.57;83.95
32243;BME280;18731;42.830;24.390;2023-02-02T15:25:02;94465.16;;;2.51;83.97
32243;BME280;18731;42.830;24.390;2023-02-02T15:27:30;94464.16;;;2.47;84.13
32243;BME280;18731;42.830;24.390;2023-02-02T15:30:02;94480.47;;;2.49;84.35
32243;BME280;18731;42.830;24.390;2023-02-02T15:32:29;94465.34;;;2.31;84.39
32243;BME280;18731;42.830;24.390;2023-02-02T15:35:06;94477.31;;;2.47;84.43
32243;BME280;18731;42.830;24.390;2023-02-02T15:37:39;94468.72;;;2.37;84.46
32243;BME280;18731;42.830;24.390;2023-02-02T15:40:12;94454.31;;;2.29;84.70
32243;BME280;18731;42.830;24.390;2023-02-02T15:42:44;94468.47;;;2.33;85.01
32243;BME280;18731;42.830;24.390;2023-02-02T15:47:59;94496.78;;;2.51;84.75
32243;BME280;18731;42.830;24.390;2023-02-02T15:50:26;94478.97;;;2.38;84.27
32243;BME280;18731;42.830;24.390;2023-02-02T15:52:53;94482.41;;;2.39;84.51
32243;BME280;18731;42.830;24.390;2023-02-02T15:55:22;94484.22;;;2.43;84.50
32243;BME280;18731;42.830;24.390;2023-02-02T15:57:48;94478.09;;;2.48;84.67
32243;BME280;18731;42.830;24.390;2023-02-02T16:03:09;94496.72;;;2.56;84.10
32243;BME280;18731;42.830;24.390;2023-02-02T16:08:35;94479.50;;;2.40;84.73
32243;BME280;18731;42.830;24.390;2023-02-02T16:11:12;94482.09;;;2.45;84.82
32243;BME280;18731;42.830;24.390;2023-02-02T16:13:41;94491.81;;;2.45;85.07
32243;BME280;18731;42.830;24.390;2023-02-02T16:16:34;94479.44;;;2.45;84.53
32243;BME280;18731;42.830;24.390;2023-02-02T16:19:11;94502.38;;;2.45;84.16
32243;BME280;18731;42.830;24.390;2023-02-02T16:21:59;94515.69;;;2.58;84.25
32243;BME280;18731;42.830;24.390;2023-02-02T16:24:31;94518.31;;;2.64;83.74
32243;BME280;18731;42.830;24.390;2023-02-02T16:26:59;94521.00;;;2.53;83.83
32243;BME280;18731;42.830;24.390;2023-02-02T16:29:27;94505.19;;;2.53;84.03
32243;BME280;18731;42.830;24.390;2023-02-02T16:31:54;94525.72;;;2.56;84.23
32243;BME280;18731;42.830;24.390;2023-02-02T16:37:16;94521.31;;;2.47;84.32
32243;BME280;18731;42.830;24.390;2023-02-02T16:39:42;94528.41;;;2.51;84.22
32243;BME280;18731;42.830;24.390;2023-02-02T16:42:10;94521.50;;;2.55;84.34
32243;BME280;18731;42.830;24.390;2023-02-02T16:44:38;94513.06;;;2.58;83.88
32243;BME280;18731;42.830;24.390;2023-02-02T16:50:17;94517.06;;;2.51;83.94
32243;BME280;18731;42.830;24.390;2023-02-02T16:52:48;94514.41;;;2.56;84.02
32243;BME280;18731;42.830;24.390;2023-02-02T16:55:16;94508.38;;;2.50;83.72
32243;BME280;18731;42.830;24.390;2023-02-02T16:57:44;94522.09;;;2.47;83.72
32243;BME280;18731;42.830;24.390;2023-02-02T17:00:18;94534.41;;;2.57;83.66
32243;BME280;18731;42.830;24.390;2023-02-02T17:02:46;94545.22;;;2.55;83.72
32243;BME280;18731;42.830;24.390;2023-02-02T17:05:26;94552.28;;;2.26;84.98
32243;BME280;18731;42.830;24.390;2023-02-02T17:07:58;94558.66;;;2.20;85.71
32243;BME280;18731;42.830;24.390;2023-02-02T17:10:31;94552.00;;;2.28;85.46
32243;BME280;18731;42.830;24.390;2023-02-02T17:12:58;94556.47;;;2.32;85.71
32243;BME280;18731;42.830;24.390;2023-02-02T17:15:33;94559.03;;;2.42;85.41
32243;BME280;18731;42.830;24.390;2023-02-02T17:17:59;94547.47;;;2.38;85.06
32243;BME280;18731;42.830;24.390;2023-02-02T17:20:26;94571.34;;;2.52;84.51
32243;BME280;18731;42.830;24.390;2023-02-02T17:23:04;94571.34;;;2.52;84.22
32243;BME280;18731;42.830;24.390;2023-02-02T17:25:36;94582.19;;;2.45;84.48
32243;BME280;18731;42.830;24.390;2023-02-02T17:28:08;94565.91;;;2.38;84.55
32243;BME280;18731;42.830;24.390;2023-02-02T17:30:35;94553.25;;;2.40;84.34
32243;BME280;18731;42.830;24.390;2023-02-02T17:33:04;94589.47;;;2.58;83.91
32243;BME280;18731;42.830;24.390;2023-02-02T17:35:30;94573.72;;;2.48;83.54
32243;BME280;18731;42.830;24.390;2023-02-02T17:37:56;94556.38;;;2.42;83.46
32243;BME280;18731;42.830;24.390;2023-02-02T17:40:22;94552.41;;;2.45;83.61
32243;BME280;18731;42.830;24.390;2023-02-02T17:42:51;94562.66;;;2.51;83.67
32243;BME280;18731;42.830;24.390;2023-02-02T17:45:23;94573.41;;;2.55;83.31
32243;BME280;18731;42.830;24.390;2023-02-02T17:47:49;94583.22;;;2.49;82.25
32243;BME280;18731;42.830;24.390;2023-02-02T17:50:16;94574.00;;;2.47;82.65
32243;BME280;18731;42.830;24.390;2023-02-02T17:52:42;94579.59;;;2.40;83.37
32243;BME280;18731;42.830;24.390;2023-02-02T17:55:33;94587.19;;;2.47;83.16
32243;BME280;18731;42.830;24.390;2023-02-02T17:57:57;94581.69;;;2.38;83.00
32243;BME280;18731;42.830;24.390;2023-02-02T18:00:24;94601.69;;;2.44;83.16
32243;BME280;18731;42.830;24.390;2023-02-02T18:02:52;94605.34;;;2.48;83.25
32243;BME280;18731;42.830;24.390;2023-02-02T18:05:19;94616.41;;;2.50;82.85
32243;BME280;18731;42.830;24.390;2023-02-02T18:07:45;94615.84;;;2.53;82.71
32243;BME280;18731;42.830;24.390;2023-02-02T18:10:14;94621.16;;;2.48;82.48
32243;BME280;18731;42.830;24.390;2023-02-02T18:12:41;94620.41;;;2.43;82.63
32243;BME280;18731;42.830;24.390;2023-02-02T18:15:10;94628.03;;;2.44;82.96
32243;BME280;18731;42.830;24.390;2023-02-02T18:17:36;94607.50;;;2.41;82.54
32243;BME280;18731;42.830;24.390;2023-02-02T18:20:03;94602.50;;;2.40;82.45
32243;BME280;18731;42.830;24.390;2023-02-02T18:22:29;94604.28;;;2.49;82.35
32243;BME280;18731;42.830;24.390;2023-02-02T18:24:55;94609.81;;;2.48;82.21
32243;BME280;18731;42.830;24.390;2023-02-02T18:27:23;94593.81;;;2.39;81.51
32243;BME280;18731;42.830;24.390;2023-02-02T18:29:48;94616.47;;;2.40;81.56
32243;BME280;18731;42.830;24.390;2023-02-02T18:32:15;94628.56;;;2.41;81.36
32243;BME280;18731;42.830;24.390;2023-02-02T18:34:42;94626.28;;;2.30;81.37
32243;BME280;18731;42.830;24.390;2023-02-02T18:37:09;94634.44;;;2.28;81.37
32243;BME280;18731;42.830;24.390;2023-02-02T18:39:35;94634.50;;;2.18;81.03
32243;BME280;18731;42.830;24.390;2023-02-02T18:42:01;94639.28;;;2.06;81.44
32243;BME280;18731;42.830;24.390;2023-02-02T18:44:27;94640.41;;;1.94;81.84
32243;BME280;18731;42.830;24.390;2023-02-02T18:46:53;94634.34;;;1.94;81.67
32243;BME280;18731;42.830;24.390;2023-02-02T18:49:19;94632.47;;;2.00;81.14
32243;BME280;18731;42.830;24.390;2023-02-02T18:51:45;94641.44;;;1.99;81.32
32243;BME280;18731;42.830;24.390;2023-02-02T18:54:12;94635.63;;;2.02;80.64
32243;BME280;18731;42.830;24.390;2023-02-02T18:56:38;94631.97;;;1.92;80.78
32243;BME280;18731;42.830;24.390;2023-02-02T18:59:04;94633.03;;;1.97;80.56
32243;BME280;18731;42.830;24.390;2023-02-02T19:01:31;94628.84;;;1.90;80.01
32243;BME280;18731;42.830;24.390;2023-02-02T19:03:58;94616.22;;;1.82;79.96
32243;BME280;18731;42.830;24.390;2023-02-02T19:06:25;94639.66;;;1.84;79.41
32243;BME280;18731;42.830;24.390;2023-02-02T19:09:10;94625.25;;;1.61;79.56
32243;BME280;18731;42.830;24.390;2023-02-02T19:11:45;94631.06;;;1.58;79.41
32243;BME280;18731;42.830;24.390;2023-02-02T19:16:38;94646.81;;;1.68;79.27
32243;BME280;18731;42.830;24.390;2023-02-02T19:19:14;94647.88;;;1.67;79.17
32243;BME280;18731;42.830;24.390;2023-02-02T19:21:42;94643.19;;;1.44;79.34
32243;BME280;18731;42.830;24.390;2023-02-02T19:24:12;94626.88;;;1.42;79.93
32243;BME280;18731;42.830;24.390;2023-02-02T19:26:43;94628.22;;;1.39;79.50
32243;BME280;18731;42.830;24.390;2023-02-02T19:29:17;94629.28;;;1.33;79.76
32243;BME280;18731;42.830;24.390;2023-02-02T19:31:43;94635.88;;;1.20;79.40
32243;BME280;18731;42.830;24.390;2023-02-02T19:34:11;94640.09;;;0.96;80.69
32243;BME280;18731;42.830;24.390;2023-02-02T19:36:37;94636.16;;;1.04;80.45
32243;BME280;18731;42.830;24.390;2023-02-02T19:39:12;94649.56;;;1.02;80.56
32243;BME280;18731;42.830;24.390;2023-02-02T19:41:39;94649.28;;;0.99;81.19
32243;BME280;18731;42.830;24.390;2023-02-02T19:44:20;94666.13;;;0.98;81.38
32243;BME280;18731;42.830;24.390;2023-02-02T19:46:49;94673.22;;;0.97;81.74
32243;BME280;18731;42.830;24.390;2023-02-02T19:49:35;94669.53;;;0.78;82.63
32243;BME280;18731;42.830;24.390;2023-02-02T19:52:02;94690.56;;;0.93;82.56